Time;durP1;ratioP1;P1;durP2;ratioP2;P2;SDS_P1;SDS_P2;PMS_P1;PMS_P2;Temp;Humidity;BMP_temperature;BMP_pressure;BME280_temperature;BME280_humidity;BME280_pressure;Samples;Min_cycle;Max_cycle;Signal;HPM_P1;HPM_P2
2022/06/15 00:00:55;;;;;;;9.50;3.67;;;25.90;73.00;;;;;;5035472;28;20053;-74
2022/06/15 00:03:21;;;;;;;12.07;3.35;;;25.90;73.00;;;;;;5034304;28;20032;-74
2022/06/15 00:05:47;;;;;;;13.93;3.30;;;25.90;72.80;;;;;;5034562;28;20035;-74
2022/06/15 00:08:12;;;;;;;9.63;3.28;;;25.90;72.70;;;;;;5035140;28;20107;-74
2022/06/15 00:10:39;;;;;;;10.05;3.35;;;25.90;72.60;;;;;;5034889;28;20071;-74
2022/06/15 00:13:07;;;;;;;12.02;4.43;;;26.00;72.90;;;;;;5035063;28;20490;-75
2022/06/15 00:15:33;;;;;;;9.20;3.47;;;25.90;72.70;;;;;;5033739;28;20037;-75
2022/06/15 00:17:59;;;;;;;8.00;2.90;;;25.90;72.90;;;;;;5035107;28;20153;-77
2022/06/15 00:20:25;;;;;;;9.23;2.75;;;25.80;72.90;;;;;;5034769;28;20061;-74
2022/06/15 00:22:51;;;;;;;10.75;3.47;;;25.90;73.00;;;;;;5034876;28;20064;-74
2022/06/15 00:25:16;;;;;;;9.32;3.35;;;25.90;72.90;;;;;;5034861;28;20474;-74
2022/06/15 00:27:42;;;;;;;10.05;3.38;;;25.80;72.60;;;;;;5035000;28;20072;-75
2022/06/15 00:30:09;;;;;;;10.98;3.63;;;25.80;72.80;;;;;;5034823;28;20051;-76
2022/06/15 00:32:35;;;;;;;7.85;3.38;;;25.80;72.50;;;;;;5034828;28;20025;-73
2022/06/15 00:35:01;;;;;;;9.32;3.63;;;25.80;72.80;;;;;;5034999;28;20433;-75
2022/06/15 00:37:26;;;;;;;8.05;3.85;;;25.80;73.40;;;;;;5034846;28;20026;-73
2022/06/15 00:39:52;;;;;;;10.02;3.88;;;25.80;73.10;;;;;;5034268;28;20077;-74
2022/06/15 00:42:19;;;;;;;11.13;4.05;;;25.80;73.20;;;;;;5034538;28;20478;-73
2022/06/15 00:44:45;;;;;;;10.52;4.07;;;25.80;73.20;;;;;;5034451;28;20026;-75
2022/06/15 00:47:22;;;;;;;10.07;4.25;;;25.70;73.60;;;;;;5034394;28;20052;-75
2022/06/15 00:50:09;;;;;;;10.75;4.85;;;25.70;72.90;;;;;;5034418;28;20044;-73
2022/06/15 00:52:47;;;;;;;9.75;4.07;;;25.60;73.00;;;;;;5033203;28;20035;-77
2022/06/15 00:55:21;;;;;;;14.55;4.53;;;25.60;73.30;;;;;;5034367;28;20100;-74
2022/06/15 00:57:47;;;;;;;10.52;4.43;;;25.60;74.50;;;;;;5034076;28;20038;-75
2022/06/15 01:00:13;;;;;;;11.13;3.85;;;25.60;74.10;;;;;;5033974;28;20034;-76
2022/06/15 01:02:41;;;;;;;10.30;4.25;;;25.70;74.00;;;;;;5034194;28;20037;-73
2022/06/15 01:05:19;;;;;;;9.93;3.97;;;25.70;74.10;;;;;;5034067;28;20035;-74
2022/06/15 01:07:57;;;;;;;7.82;3.90;;;25.70;73.90;;;;;;5033842;28;20021;-73
2022/06/15 01:10:41;;;;;;;11.35;3.95;;;25.70;73.80;;;;;;5033701;28;20109;-75
2022/06/15 01:13:26;;;;;;;10.55;3.90;;;25.70;73.60;;;;;;5034002;28;20044;-73
2022/06/15 01:16:29;;;;;;;10.73;4.05;;;25.60;73.60;;;;;;5033493;28;20472;-74
2022/06/15 01:19:38;;;;;;;8.40;3.88;;;25.60;72.50;;;;;;5034018;28;20040;-74
2022/06/15 01:22:16;;;;;;;9.68;4.60;;;25.70;73.10;;;;;;5033314;28;20037;-74
2022/06/15 01:25:15;;;;;;;8.85;3.55;;;25.60;72.90;;;;;;5034045;28;20455;-73
2022/06/15 01:27:55;;;;;;;8.40;4.03;;;25.50;72.10;;;;;;5033827;28;20119;-74
2022/06/15 01:30:42;;;;;;;11.05;4.22;;;25.40;71.90;;;;;;5033534;28;20040;-74
2022/06/15 01:33:25;;;;;;;11.18;4.28;;;25.40;73.00;;;;;;5033480;28;20339;-74
2022/06/15 01:36:10;;;;;;;11.52;3.58;;;25.30;72.50;;;;;;5033366;28;20036;-74
2022/06/15 01:38:45;;;;;;;9.80;4.25;;;25.30;73.60;;;;;;5033510;28;20407;-74
2022/06/15 01:41:27;;;;;;;12.85;3.70;;;25.30;73.40;;;;;;5033265;28;20065;-74
2022/06/15 01:44:00;;;;;;;8.35;4.38;;;25.40;72.30;;;;;;5033197;28;20471;-74
2022/06/15 01:46:27;;;;;;;11.05;4.47;;;25.30;73.10;;;;;;5033236;28;20037;-74
2022/06/15 01:48:55;;;;;;;7.85;4.30;;;25.30;72.90;;;;;;5032228;28;20140;-74
2022/06/15 01:51:24;;;;;;;8.55;4.30;;;25.30;72.80;;;;;;5033165;28;20029;-74
2022/06/15 01:54:10;;;;;;;13.98;5.35;;;25.30;72.50;;;;;;5033435;28;20429;-74
2022/06/15 01:56:41;;;;;;;12.57;4.50;;;25.30;71.20;;;;;;5033172;28;20467;-74
2022/06/15 01:59:33;;;;;;;11.45;4.53;;;25.30;71.90;;;;;;5033091;28;20479;-73
2022/06/15 02:02:30;;;;;;;9.88;4.70;;;25.40;70.70;;;;;;5033243;28;20022;-73
2022/06/15 02:05:06;;;;;;;10.00;4.35;;;25.30;70.50;;;;;;5033046;28;20036;-74
2022/06/15 02:07:57;;;;;;;10.52;4.70;;;25.20;71.70;;;;;;5032831;28;20459;-74
2022/06/15 02:10:33;;;;;;;8.13;3.90;;;25.30;70.60;;;;;;5032812;28;20025;-73
2022/06/15 02:13:11;;;;;;;10.63;4.07;;;25.30;70.10;;;;;;5033134;28;20029;-74
2022/06/15 02:15:41;;;;;;;7.55;3.75;;;25.20;70.00;;;;;;5032986;28;20046;-74
2022/06/15 02:18:11;;;;;;;12.40;4.00;;;25.30;70.60;;;;;;5032876;28;20100;-73
2022/06/15 02:20:43;;;;;;;9.48;3.80;;;25.30;70.30;;;;;;5032762;28;20425;-74
2022/06/15 02:23:11;;;;;;;12.85;4.22;;;25.30;69.70;;;;;;5032983;28;20034;-74
2022/06/15 02:25:42;;;;;;;9.80;4.05;;;25.20;69.70;;;;;;5032713;28;20561;-74
2022/06/15 02:28:08;;;;;;;11.55;4.38;;;25.20;69.50;;;;;;5034213;28;20022;-73
2022/06/15 02:30:35;;;;;;;11.25;4.22;;;25.20;69.30;;;;;;5037031;28;20405;-74
2022/06/15 02:33:19;;;;;;;9.35;3.83;;;25.20;69.40;;;;;;5037097;28;20026;-73
2022/06/15 02:35:45;;;;;;;11.68;4.00;;;25.20;69.40;;;;;;5036661;28;20033;-74
2022/06/15 02:38:11;;;;;;;8.77;3.78;;;25.20;69.10;;;;;;5036746;28;20018;-73
2022/06/15 02:40:36;;;;;;;10.75;3.97;;;25.20;68.80;;;;;;5036484;28;20056;-74
2022/06/15 02:43:02;;;;;;;14.52;4.40;;;25.20;69.00;;;;;;5036876;28;20013;-74
2022/06/15 02:45:35;;;;;;;6.68;3.70;;;25.20;68.70;;;;;;5036824;28;20037;-73
2022/06/15 02:48:04;;;;;;;8.13;3.58;;;25.20;68.70;;;;;;5036706;28;20025;-73
2022/06/15 02:50:34;;;;;;;7.38;3.95;;;25.10;68.50;;;;;;5037006;28;20025;-73
2022/06/15 02:53:07;;;;;;;7.90;3.97;;;25.10;69.40;;;;;;5036650;28;20051;-74
2022/06/15 02:55:34;;;;;;;9.32;3.85;;;25.10;68.50;;;;;;5036732;28;20021;-73
2022/06/15 02:58:13;;;;;;;10.07;4.03;;;25.10;68.60;;;;;;5036543;28;20025;-75
2022/06/15 03:00:40;;;;;;;12.85;4.60;;;25.10;69.10;;;;;;5036329;28;20032;-72
2022/06/15 03:03:06;;;;;;;9.60;3.78;;;25.00;69.50;;;;;;5036394;28;20352;-73
2022/06/15 03:05:32;;;;;;;13.90;3.97;;;25.00;70.00;;;;;;5036248;28;20554;-74
2022/06/15 03:07:58;;;;;;;14.57;4.10;;;24.90;70.40;;;;;;5036163;28;20173;-74
2022/06/15 03:10:24;;;;;;;7.18;3.50;;;24.80;70.50;;;;;;5036138;28;20471;-74
2022/06/15 03:12:50;;;;;;;8.55;3.70;;;24.80;70.90;;;;;;5036169;28;20026;-73
2022/06/15 03:15:16;;;;;;;10.70;3.60;;;24.80;71.30;;;;;;5036236;28;20033;-74
2022/06/15 03:17:42;;;;;;;15.45;4.20;;;24.80;71.50;;;;;;5036031;28;20487;-74
2022/06/15 03:20:09;;;;;;;9.32;3.70;;;24.80;71.10;;;;;;5035910;28;20054;-73
2022/06/15 03:22:35;;;;;;;11.30;3.90;;;24.90;71.10;;;;;;5036027;28;20025;-73
2022/06/15 03:25:02;;;;;;;10.23;3.72;;;24.90;70.60;;;;;;5035844;28;20436;-73
2022/06/15 03:27:28;;;;;;;12.68;3.80;;;24.90;70.70;;;;;;5036050;28;20036;-73
2022/06/15 03:29:54;;;;;;;7.30;3.70;;;24.90;70.60;;;;;;5035629;28;20022;-74
2022/06/15 03:32:19;;;;;;;6.97;3.85;;;24.90;70.40;;;;;;5036358;28;20028;-74
2022/06/15 03:34:45;;;;;;;8.93;3.60;;;24.90;70.50;;;;;;5035793;28;20021;-74
2022/06/15 03:37:11;;;;;;;8.07;3.65;;;24.90;70.60;;;;;;5035783;28;20018;-73
2022/06/15 03:39:37;;;;;;;14.43;4.25;;;24.80;70.50;;;;;;5035283;28;20057;-74
2022/06/15 03:42:23;;;;;;;10.40;3.67;;;24.90;70.50;;;;;;5035824;28;20028;-73
2022/06/15 03:44:50;;;;;;;7.47;3.67;;;24.80;70.20;;;;;;5035603;28;20100;-73
2022/06/15 03:47:17;;;;;;;10.57;4.43;;;24.70;70.00;;;;;;5035633;28;20044;-73
2022/06/15 03:49:54;;;;;;;9.07;3.90;;;24.70;70.00;;;;;;5035607;28;20395;-74
2022/06/15 03:52:22;;;;;;;6.95;4.00;;;24.70;70.10;;;;;;5035637;28;20080;-74
2022/06/15 03:54:48;;;;;;;7.15;3.53;;;24.60;70.00;;;;;;5035601;28;20032;-73
2022/06/15 03:57:17;;;;;;;10.63;3.83;;;24.50;70.30;;;;;;5035704;28;20029;-73
2022/06/15 03:59:43;;;;;;;8.40;3.70;;;24.50;70.30;;;;;;5035198;28;20025;-74
2022/06/15 04:02:09;;;;;;;8.65;3.55;;;24.50;70.00;;;;;;5035339;28;20022;-75
2022/06/15 04:04:35;;;;;;;9.27;4.03;;;24.60;69.90;;;;;;5035462;28;20051;-74
2022/06/15 04:07:01;;;;;;;8.70;4.38;;;24.70;69.70;;;;;;5035205;28;20040;-73
2022/06/15 04:09:28;;;;;;;11.55;4.28;;;24.70;69.80;;;;;;5035337;28;20032;-74
2022/06/15 04:12:08;;;;;;;9.80;3.80;;;24.70;69.30;;;;;;5035099;28;20060;-74
2022/06/15 04:14:35;;;;;;;9.77;3.67;;;24.70;69.60;;;;;;5035218;28;20025;-74
2022/06/15 04:17:02;;;;;;;9.13;4.00;;;24.70;69.40;;;;;;5035305;28;20059;-73
2022/06/15 04:19:30;;;;;;;9.02;3.72;;;24.70;69.40;;;;;;5034896;28;20502;-73
2022/06/15 04:21:57;;;;;;;10.60;4.00;;;24.80;69.60;;;;;;5035116;28;20044;-74
2022/06/15 04:24:26;;;;;;;7.35;3.38;;;24.80;69.80;;;;;;5034981;28;20105;-74
2022/06/15 04:26:52;;;;;;;12.23;4.50;;;24.80;69.60;;;;;;5035135;28;20080;-73
2022/06/15 04:29:19;;;;;;;10.20;3.72;;;24.80;69.40;;;;;;5034978;28;20057;-74
2022/06/15 04:31:45;;;;;;;11.75;3.85;;;24.80;69.30;;;;;;5033492;28;20482;-75
2022/06/15 04:34:11;;;;;;;13.98;3.83;;;24.80;69.00;;;;;;5033486;28;20028;-74
2022/06/15 04:36:39;;;;;;;7.35;3.95;;;24.80;68.90;;;;;;5034234;28;20018;-74
2022/06/15 04:39:08;;;;;;;11.38;4.10;;;24.80;69.10;;;;;;5034185;28;20033;-74
2022/06/15 04:41:36;;;;;;;12.18;3.63;;;24.80;68.80;;;;;;5034340;28;20042;-76
2022/06/15 04:44:02;;;;;;;7.53;3.83;;;24.80;69.10;;;;;;5033159;28;20044;-74
2022/06/15 04:46:28;;;;;;;8.80;3.65;;;24.80;69.40;;;;;;5034313;28;20105;-74
2022/06/15 04:48:55;;;;;;;11.50;3.80;;;24.80;69.80;;;;;;5034551;28;20025;-74
2022/06/15 04:51:24;;;;;;;8.82;3.90;;;24.80;69.10;;;;;;5033424;28;20482;-74
2022/06/15 04:53:52;;;;;;;9.10;4.13;;;24.90;69.30;;;;;;5033578;28;20143;-75
2022/06/15 04:56:19;;;;;;;8.63;4.38;;;24.90;69.20;;;;;;5034328;28;20033;-75
2022/06/15 04:58:46;;;;;;;13.88;4.30;;;24.90;70.30;;;;;;5034380;28;20030;-73
2022/06/15 05:01:13;;;;;;;11.73;4.40;;;24.90;69.30;;;;;;5034253;28;20178;-75
2022/06/15 05:03:40;;;;;;;10.05;4.10;;;25.00;69.30;;;;;;5032914;28;20045;-66
2022/06/15 05:06:13;;;;;;;15.63;4.18;;;25.00;69.40;;;;;;5034018;28;20121;-67
2022/06/15 05:08:39;;;;;;;6.88;4.25;;;25.00;69.10;;;;;;5033879;28;20025;-67
2022/06/15 05:11:05;;;;;;;8.20;3.67;;;25.20;68.80;;;;;;5033502;28;20022;-66
2022/06/15 05:13:31;;;;;;;8.80;3.63;;;25.30;68.40;;;;;;5033712;28;20025;-64
2022/06/15 05:15:56;;;;;;;9.90;4.30;;;25.40;68.30;;;;;;5033592;28;20025;-68
2022/06/15 05:18:22;;;;;;;9.68;3.92;;;25.70;67.70;;;;;;5033692;28;20033;-67
2022/06/15 05:20:48;;;;;;;13.82;5.78;;;26.00;66.50;;;;;;5033388;28;20355;-72
2022/06/15 05:23:15;;;;;;;8.25;4.68;;;26.20;65.60;;;;;;5033775;28;20029;-72
2022/06/15 05:25:42;;;;;;;13.07;5.00;;;26.40;64.20;;;;;;5033576;28;20026;-71
2022/06/15 05:28:08;;;;;;;8.80;6.10;;;26.80;63.40;;;;;;5033801;28;20064;-72
2022/06/15 05:30:35;;;;;;;15.43;5.70;;;27.10;62.70;;;;;;5033911;28;20401;-73
2022/06/15 05:33:01;;;;;;;13.23;4.80;;;27.40;61.10;;;;;;5033650;28;20063;-70
2022/06/15 05:35:27;;;;;;;9.50;4.30;;;27.60;59.90;;;;;;5032596;28;20025;-71
2022/06/15 05:37:53;;;;;;;9.75;4.03;;;27.90;59.20;;;;;;5033171;28;20018;-72
2022/06/15 05:40:19;;;;;;;6.80;3.97;;;28.20;58.30;;;;;;5032709;28;20048;-73
2022/06/15 05:42:44;;;;;;;13.98;3.90;;;28.40;58.00;;;;;;5032729;28;20104;-72
2022/06/15 05:45:10;;;;;;;8.38;3.80;;;28.80;56.50;;;;;;5032593;28;20021;-72
2022/06/15 05:47:36;;;;;;;11.13;4.28;;;29.00;55.30;;;;;;5032669;28;20495;-72
2022/06/15 05:50:02;;;;;;;7.57;3.95;;;29.20;54.60;;;;;;5032959;28;20034;-74
2022/06/15 05:52:28;;;;;;;9.80;4.03;;;29.40;53.90;;;;;;5032891;28;20025;-73
2022/06/15 05:54:56;;;;;;;11.63;5.25;;;29.50;53.70;;;;;;5032233;28;20037;-74
2022/06/15 05:57:23;;;;;;;11.20;4.43;;;29.70;53.40;;;;;;5033353;28;20447;-78
2022/06/15 05:59:50;;;;;;;9.77;4.25;;;30.00;52.80;;;;;;5032730;28;20123;-76
2022/06/15 06:02:19;;;;;;;9.80;4.25;;;30.20;52.10;;;;;;5032149;28;20385;-75
2022/06/15 06:04:46;;;;;;;9.88;4.10;;;30.30;51.80;;;;;;5033053;28;20076;-76
2022/06/15 06:07:11;;;;;;;9.93;3.78;;;30.50;50.00;;;;;;5033139;28;20037;-75
2022/06/15 06:09:39;;;;;;;11.27;3.63;;;30.60;50.50;;;;;;5033289;28;20022;-74
2022/06/15 06:12:08;;;;;;;7.68;3.75;;;30.70;50.50;;;;;;5032136;28;20094;-76
2022/06/15 06:14:34;;;;;;;7.60;3.83;;;30.80;50.10;;;;;;5033277;28;20034;-74
2022/06/15 06:17:00;;;;;;;11.40;3.70;;;30.90;49.70;;;;;;5033419;28;20079;-74
2022/06/15 06:19:25;;;;;;;14.05;4.35;;;30.80;49.70;;;;;;5033656;28;20434;-74
2022/06/15 06:21:51;;;;;;;12.00;4.35;;;30.90;49.60;;;;;;5034151;28;20033;-75
2022/06/15 06:24:17;;;;;;;17.67;5.00;;;30.90;49.40;;;;;;5034469;28;20028;-75
2022/06/15 06:26:43;;;;;;;27.40;5.68;;;31.10;49.80;;;;;;5033129;28;20033;-75
2022/06/15 06:29:13;;;;;;;26.40;6.05;;;31.40;48.70;;;;;;5033082;28;20048;-77
2022/06/15 06:31:39;;;;;;;25.40;5.55;;;31.30;48.10;;;;;;5033210;28;20076;-75
2022/06/15 06:34:04;;;;;;;20.25;4.93;;;31.30;48.50;;;;;;5033501;28;20022;-79
2022/06/15 06:36:38;;;;;;;13.05;5.35;;;31.50;48.10;;;;;;5033283;28;20056;-77
2022/06/15 06:39:09;;;;;;;12.80;4.20;;;31.60;47.90;;;;;;5013924;28;20108;-76
2022/06/15 06:41:35;;;;;;;13.85;4.63;;;31.80;47.70;;;;;;5032468;28;20096;-82
2022/06/15 06:44:06;;;;;;;13.73;5.07;;;31.80;47.50;;;;;;5033281;28;20111;-76
2022/06/15 06:46:33;;;;;;;12.52;4.90;;;31.70;47.60;;;;;;5015866;28;20507;-80
2022/06/15 06:48:59;;;;;;;13.05;4.75;;;31.70;47.90;;;;;;5032795;28;20415;-79
2022/06/15 06:51:28;;;;;;;12.20;5.28;;;31.90;47.70;;;;;;5032766;28;20022;-77
2022/06/15 06:53:53;;;;;;;17.38;5.45;;;32.10;46.90;;;;;;5032629;28;20052;-77
2022/06/15 06:56:19;;;;;;;11.23;4.32;;;32.20;46.80;;;;;;5032233;28;20459;-80
2022/06/15 06:58:45;;;;;;;16.05;4.38;;;32.30;46.70;;;;;;5033034;28;20048;-76
2022/06/15 07:01:11;;;;;;;13.45;4.45;;;32.30;46.50;;;;;;5032830;28;20025;-78
2022/06/15 07:03:36;;;;;;;17.45;5.45;;;32.30;46.60;;;;;;5032836;28;20026;-77
2022/06/15 07:06:05;;;;;;;20.58;5.18;;;32.40;46.80;;;;;;5032620;28;20108;-76
2022/06/15 07:08:31;;;;;;;15.27;5.47;;;32.50;46.10;;;;;;5032677;28;20120;-77
2022/06/15 07:10:57;;;;;;;22.63;4.45;;;32.40;45.90;;;;;;5032488;28;20479;-78
2022/06/15 07:13:23;;;;;;;14.88;4.35;;;32.50;46.40;;;;;;5032166;28;20052;-75
2022/06/15 07:15:48;;;;;;;11.85;3.97;;;32.40;45.80;;;;;;5034916;28;20021;-75
2022/06/15 07:18:14;;;;;;;20.05;9.75;;;32.50;46.50;;;;;;5036317;28;20033;-76
2022/06/15 07:20:40;;;;;;;21.63;11.63;;;32.50;45.30;;;;;;5035700;28;20029;-78
2022/06/15 07:23:06;;;;;;;11.32;4.30;;;32.70;45.20;;;;;;5035868;28;20029;-77
2022/06/15 07:25:32;;;;;;;8.75;4.18;;;32.70;45.00;;;;;;5034436;28;20040;-77
2022/06/15 07:27:57;;;;;;;12.82;3.90;;;32.60;44.90;;;;;;5035914;28;20028;-77
2022/06/15 07:30:26;;;;;;;9.52;3.90;;;32.50;44.80;;;;;;5034341;28;20025;-76
2022/06/15 07:32:53;;;;;;;13.65;4.13;;;32.50;45.10;;;;;;5035816;28;20061;-77
2022/06/15 07:35:30;;;;;;;15.68;4.40;;;32.50;45.20;;;;;;5035413;28;20479;-76
2022/06/15 07:37:57;;;;;;;15.85;4.70;;;32.50;44.80;;;;;;5035462;28;20363;-77
2022/06/15 07:40:23;;;;;;;11.95;4.53;;;32.60;44.80;;;;;;5035105;28;20522;-76
2022/06/15 07:42:51;;;;;;;13.07;4.70;;;32.60;44.30;;;;;;5035431;28;20108;-77
2022/06/15 07:45:19;;;;;;;9.27;4.43;;;32.70;44.40;;;;;;5033824;28;20085;-78
2022/06/15 07:50:30;;;;;;;14.55;4.05;;;32.50;44.30;;;;;;5035373;28;20041;-77
2022/06/15 07:52:56;;;;;;;10.48;5.10;;;32.60;44.60;;;;;;5033820;28;20470;-76
2022/06/15 07:55:29;;;;;;;10.45;4.40;;;32.60;44.10;;;;;;5035271;28;20033;-76
2022/06/15 07:57:55;;;;;;;13.88;4.15;;;32.60;45.00;;;;;;5035378;28;20021;-79
2022/06/15 08:00:23;;;;;;;14.98;6.07;;;32.60;44.40;;;;;;5033569;28;20029;-77
2022/06/15 08:02:50;;;;;;;13.80;4.50;;;32.60;44.10;;;;;;5034906;28;20037;-76
2022/06/15 08:05:16;;;;;;;13.68;4.10;;;32.60;44.60;;;;;;5034946;28;20029;-79
2022/06/15 08:07:44;;;;;;;9.27;3.90;;;32.50;44.80;;;;;;5034946;28;20033;-76
2022/06/15 08:10:15;;;;;;;11.85;5.60;;;32.50;45.90;;;;;;5034889;28;20041;-78
2022/06/15 08:12:41;;;;;;;10.85;4.90;;;32.40;45.10;;;;;;5034872;28;20033;-77
2022/06/15 08:15:08;;;;;;;11.95;5.10;;;32.30;45.00;;;;;;5035353;28;20024;-78
2022/06/15 08:17:40;;;;;;;14.07;4.93;;;32.30;45.00;;;;;;5034969;28;20097;-78
2022/06/15 08:20:12;;;;;;;15.13;4.35;;;32.20;44.90;;;;;;5034700;28;20575;-77
2022/06/15 08:22:40;;;;;;;17.38;4.05;;;32.20;45.30;;;;;;5034617;28;20079;-76
2022/06/15 08:25:14;;;;;;;10.60;4.00;;;32.10;45.60;;;;;;5033416;28;20072;-77
2022/06/15 08:27:39;;;;;;;7.82;4.10;;;32.00;45.60;;;;;;5034655;28;20064;-75
2022/06/15 08:30:08;;;;;;;10.95;4.18;;;31.90;45.80;;;;;;5034573;28;20045;-77
2022/06/15 08:32:34;;;;;;;9.23;3.70;;;31.80;46.10;;;;;;5034669;28;20405;-78
2022/06/15 08:35:00;;;;;;;13.65;4.45;;;31.60;46.30;;;;;;5034437;28;20021;-76
2022/06/15 08:37:26;;;;;;;10.10;3.70;;;31.60;47.30;;;;;;5034451;28;20013;-77
2022/06/15 08:39:54;;;;;;;9.18;4.03;;;31.60;47.10;;;;;;5034281;28;20049;-78
2022/06/15 08:42:45;;;;;;;11.85;4.78;;;31.60;46.50;;;;;;5033167;28;20112;-77
2022/06/15 08:45:26;;;;;;;11.38;3.85;;;31.50;45.50;;;;;;5034092;28;20382;-76
2022/06/15 08:47:55;;;;;;;10.70;3.60;;;31.40;45.70;;;;;;5033961;28;20383;-77
2022/06/15 08:50:26;;;;;;;10.77;4.00;;;31.20;46.10;;;;;;5034003;28;20328;-78
2022/06/15 08:53:02;;;;;;;11.98;4.15;;;31.20;46.30;;;;;;5034043;28;20072;-76
2022/06/15 08:55:36;;;;;;;12.38;4.25;;;31.10;46.60;;;;;;5033805;28;20120;-75
2022/06/15 08:58:23;;;;;;;13.32;4.25;;;31.10;46.90;;;;;;5034044;28;20063;-79
2022/06/15 09:00:54;;;;;;;11.30;3.40;;;31.10;47.00;;;;;;5033977;28;20029;-76
2022/06/15 09:03:54;;;;;;;11.93;4.20;;;31.10;47.50;;;;;;5033738;28;20226;-78
2022/06/15 09:07:16;;;;;;;17.15;4.22;;;31.20;45.90;;;;;;5033681;28;20034;-78
2022/06/15 09:09:49;;;;;;;11.05;3.47;;;31.20;46.00;;;;;;5033210;28;20049;-76
2022/06/15 09:12:53;;;;;;;10.15;3.58;;;31.20;45.80;;;;;;5034498;28;20423;-79
2022/06/15 09:15:53;;;;;;;10.77;3.50;;;31.20;45.90;;;;;;5033546;28;20375;-77
2022/06/15 09:18:39;;;;;;;12.60;3.65;;;31.10;45.70;;;;;;5036083;28;20029;-78
2022/06/15 09:21:14;;;;;;;9.82;3.45;;;31.10;46.30;;;;;;5032885;28;20087;-78
2022/06/15 09:23:50;;;;;;;10.23;3.22;;;31.00;47.80;;;;;;5033595;28;20064;-78
2022/06/15 09:26:27;;;;;;;10.45;3.50;;;31.10;46.90;;;;;;5032921;28;20041;-76
2022/06/15 09:29:31;;;;;;;9.38;3.65;;;31.10;47.60;;;;;;5033161;28;20029;-77
2022/06/15 09:31:59;;;;;;;11.82;3.45;;;31.10;47.10;;;;;;5032507;28;20479;-78
2022/06/15 09:34:38;;;;;;;10.60;3.95;;;31.20;47.70;;;;;;5033233;28;20033;-80
2022/06/15 09:37:11;;;;;;;13.45;3.75;;;31.20;46.20;;;;;;5033105;28;20049;-80
2022/06/15 09:39:37;;;;;;;9.43;4.68;;;31.20;46.00;;;;;;5032875;28;20468;-80
2022/06/15 09:42:20;;;;;;;8.82;4.00;;;31.20;47.40;;;;;;5033041;28;20490;-80
2022/06/15 09:44:59;;;;;;;15.25;3.20;;;31.20;45.30;;;;;;5033098;28;20105;-79
2022/06/15 09:47:46;;;;;;;12.45;3.10;;;31.20;45.70;;;;;;5033315;28;20043;-78
2022/06/15 09:50:55;;;;;;;8.45;3.22;;;31.20;45.10;;;;;;5033211;28;20091;-77
2022/06/15 09:53:29;;;;;;;11.63;3.10;;;31.30;45.20;;;;;;5032628;28;20088;-80
2022/06/15 09:55:59;;;;;;;8.50;3.20;;;31.40;45.20;;;;;;5033036;28;20025;-79
2022/06/15 09:58:33;;;;;;;12.20;3.58;;;31.40;45.10;;;;;;5032794;28;20089;-78
2022/06/15 10:00:58;;;;;;;11.82;3.72;;;31.50;44.80;;;;;;5032933;28;20032;-79
2022/06/15 10:03:39;;;;;;;11.23;3.15;;;31.50;44.80;;;;;;5033157;28;20431;-80
2022/06/15 10:06:37;;;;;;;9.70;3.30;;;31.50;45.00;;;;;;5032875;28;20056;-78
2022/06/15 10:09:07;;;;;;;9.27;3.05;;;31.60;44.70;;;;;;5031933;28;20487;-79
2022/06/15 10:11:42;;;;;;;9.63;3.03;;;31.60;45.00;;;;;;5032781;28;20033;-76
2022/06/15 10:14:23;;;;;;;10.88;3.53;;;31.60;44.70;;;;;;5032726;28;20022;-80
2022/06/15 10:17:30;;;;;;;8.50;3.33;;;31.60;44.30;;;;;;5032539;28;20033;-78
2022/06/15 10:19:58;;;;;;;7.72;3.10;;;31.70;44.00;;;;;;5032299;28;20041;-78
2022/06/15 10:22:29;;;;;;;11.73;3.75;;;31.80;44.20;;;;;;5032695;28;20033;-77
2022/06/15 10:24:57;;;;;;;7.90;3.53;;;31.80;44.00;;;;;;5032783;28;20450;-79
2022/06/15 10:27:31;;;;;;;7.85;3.33;;;31.80;44.40;;;;;;5031382;28;20038;-78
2022/06/15 10:30:06;;;;;;;9.68;3.72;;;31.80;44.60;;;;;;5032731;28;20037;-78
2022/06/15 10:32:32;;;;;;;13.75;3.33;;;31.80;44.00;;;;;;5032906;28;20483;-77
2022/06/15 10:35:04;;;;;;;9.32;3.40;;;31.80;45.20;;;;;;5032997;28;20022;-80
2022/06/15 10:37:40;;;;;;;14.98;3.50;;;31.90;45.30;;;;;;5033296;28;20026;-76
2022/06/15 10:40:31;;;;;;;9.15;3.30;;;31.90;45.10;;;;;;5033769;28;20080;-76
2022/06/15 10:43:14;;;;;;;12.52;4.10;;;31.90;45.10;;;;;;5034297;28;20041;-76
2022/06/15 10:46:02;;;;;;;7.93;3.67;;;32.00;44.90;;;;;;5033022;28;20115;-77
2022/06/15 10:48:46;;;;;;;7.80;3.03;;;32.00;46.70;;;;;;5033991;28;20042;-76
2022/06/15 10:51:16;;;;;;;7.72;3.08;;;32.00;44.60;;;;;;5036254;28;20045;-78
2022/06/15 10:54:17;;;;;;;10.02;2.90;;;32.00;45.40;;;;;;5036691;28;20079;-78
2022/06/15 11:02:20;;;;;;;5.63;2.33;;;32.10;43.20;;;;;;5036316;28;20025;-76
2022/06/15 11:04:46;;;;;;;8.23;2.50;;;32.10;42.80;;;;;;5036487;28;20087;-77
2022/06/15 11:07:27;;;;;;;7.95;2.30;;;32.10;42.40;;;;;;5034890;28;20045;-79
2022/06/15 11:09:55;;;;;;;5.07;2.30;;;32.10;42.60;;;;;;5036314;28;20029;-78
2022/06/15 11:12:23;;;;;;;10.82;2.45;;;32.20;41.90;;;;;;5036378;28;20029;-78
2022/06/15 11:15:13;;;;;;;8.57;2.35;;;32.20;41.40;;;;;;5036390;28;20482;-79
2022/06/15 11:18:02;;;;;;;8.07;2.88;;;32.30;42.00;;;;;;5036175;28;20029;-79
2022/06/15 11:20:50;;;;;;;6.47;2.25;;;32.30;41.70;;;;;;5036229;28;20040;-79
2022/06/15 11:23:45;;;;;;;9.55;2.58;;;32.30;41.20;;;;;;5034950;28;20064;-78
2022/06/15 11:29:51;;;;;;;6.68;2.00;;;32.30;40.50;;;;;;5036189;28;20036;-78
2022/06/15 11:32:41;;;;;;;8.00;2.40;;;32.30;40.70;;;;;;5034935;28;20034;-75
2022/06/15 11:35:13;;;;;;;6.38;2.58;;;32.50;40.50;;;;;;5036170;28;20025;-77
2022/06/15 11:37:59;;;;;;;6.47;1.90;;;32.30;40.20;;;;;;5036189;28;20057;-77
2022/06/15 11:40:37;;;;;;;7.90;2.28;;;32.40;40.70;;;;;;5035484;28;20112;-81
2022/06/15 11:43:16;;;;;;;8.95;2.55;;;32.40;41.00;;;;;;5036371;28;20083;-77
2022/06/15 11:46:00;;;;;;;6.05;1.80;;;32.40;40.80;;;;;;5035810;28;20034;-80
2022/06/15 11:48:51;;;;;;;6.35;1.77;;;32.30;40.00;;;;;;5035710;28;20041;-78
2022/06/15 11:51:29;;;;;;;5.70;1.90;;;32.40;39.70;;;;;;5034378;28;20017;-78
2022/06/15 11:54:08;;;;;;;6.03;1.90;;;32.40;40.60;;;;;;5035913;28;20029;-79
2022/06/15 11:56:43;;;;;;;10.32;1.90;;;32.40;39.70;;;;;;5035729;28;20025;-80
2022/06/15 11:59:34;;;;;;;6.60;2.10;;;32.40;39.60;;;;;;5035616;28;20497;-79
2022/06/15 12:02:36;;;;;;;5.75;1.70;;;32.40;40.70;;;;;;5035202;28;20021;-77
2022/06/15 12:05:34;;;;;;;7.65;1.85;;;32.40;40.70;;;;;;5035159;28;20090;-80
2022/06/15 12:08:20;;;;;;;9.80;2.55;;;32.30;41.00;;;;;;5034588;28;20042;-78
2022/06/15 12:12:37;;;;;;;9.60;2.10;;;32.30;40.40;;;;;;5035142;28;20401;-78
2022/06/15 12:14:06;;;;;;;5.88;1.85;;;32.30;41.20;;;;;;5035216;28;20030;-78
2022/06/15 12:16:48;;;;;;;8.05;2.30;;;32.40;40.90;;;;;;5035099;28;20017;-78
2022/06/15 12:19:36;;;;;;;6.97;2.13;;;32.40;39.40;;;;;;5035154;28;20053;-77
2022/06/15 12:22:23;;;;;;;8.57;2.08;;;32.40;39.30;;;;;;5035008;28;20022;-80
2022/06/15 12:25:19;;;;;;;9.73;2.20;;;32.30;40.40;;;;;;5034994;28;20068;-80
2022/06/15 12:28:01;;;;;;;7.53;2.17;;;32.40;39.90;;;;;;5033833;28;20096;-78
2022/06/15 12:30:33;;;;;;;7.68;1.80;;;32.40;39.10;;;;;;5034690;28;20471;-78
2022/06/15 12:33:05;;;;;;;8.15;2.03;;;32.50;39.50;;;;;;5034511;28;20057;-78
2022/06/15 12:35:40;;;;;;;8.68;2.03;;;32.60;39.30;;;;;;5033116;28;20025;-77
2022/06/15 12:38:37;;;;;;;13.55;2.30;;;32.60;39.30;;;;;;5034948;28;20417;-79
2022/06/15 12:44:04;;;;;;;9.35;1.98;;;32.60;39.00;;;;;;5035141;28;20556;-81
2022/06/15 12:46:32;;;;;;;9.63;1.85;;;32.60;39.20;;;;;;5034833;28;20112;-78
2022/06/15 12:49:15;;;;;;;7.82;1.70;;;32.60;39.50;;;;;;5035000;28;20052;-80
2022/06/15 12:51:54;;;;;;;10.77;2.70;;;32.60;40.20;;;;;;5033905;28;20482;-80
2022/06/15 12:54:38;;;;;;;6.30;1.70;;;32.70;40.30;;;;;;5034896;28;20025;-79
2022/06/15 12:57:22;;;;;;;8.18;2.00;;;32.70;39.80;;;;;;5035587;28;20076;-80
2022/06/15 12:59:53;;;;;;;;;;;32.70;40.30;;;;;;5037073;28;20067;-79
2022/06/15 13:02:29;;;;;;;3.72;1.80;;;32.80;39.60;;;;;;5037092;28;19928;-79
2022/06/15 13:05:19;;;;;;;6.90;2.03;;;32.80;39.80;;;;;;5037938;28;20033;-79
2022/06/15 13:08:05;;;;;;;6.47;1.70;;;32.90;39.80;;;;;;5035518;28;20092;-77
2022/06/15 13:10:32;;;;;;;7.57;1.98;;;32.90;39.10;;;;;;5033597;28;20096;-80
2022/06/15 13:13:02;;;;;;;5.93;2.50;;;32.90;39.40;;;;;;5034025;28;20040;-82
2022/06/15 13:15:31;;;;;;;5.93;2.38;;;33.00;39.50;;;;;;5033832;28;20029;-82
2022/06/15 13:18:11;;;;;;;10.75;1.88;;;33.00;39.60;;;;;;5033737;28;20029;-80
2022/06/15 13:20:46;;;;;;;5.28;1.85;;;33.00;39.30;;;;;;5034015;28;20057;-76
2022/06/15 13:23:53;;;;;;;4.88;1.77;;;33.00;39.20;;;;;;5033894;28;20033;-78
2022/06/15 13:26:25;;;;;;;9.00;2.40;;;32.90;39.90;;;;;;5033187;28;20045;-75
2022/06/15 13:29:05;;;;;;;7.07;2.08;;;32.90;39.70;;;;;;5033875;28;20107;-76